»·PEaware :: SWA280 KPHX-KABQ

SWA280 :: KPHX-KABQ

FLIGHT INFORMATION

Flight Status: Arrived
Operator:
Southwest Airlines
More flights by this operator :: More flights under this callsign
Pilot: Patricio R. (14780)
Aircraft: BOEING 737-800
(B738)
More flights by this aircraft type
Origin: KPHX Phoenix Sky Harbor Intl
United States
Destination: KABQ Albuquerque Intl Sunport
United States
More flights between these airports :: More routes between these airports
Route: FORPE1 SJN CABNO KRKEE3
File this flight plan on PilotEdge
Remarks:
Altitude:
(Current/Filed)
37,000ft
Speed:
(Current/Filed)
445kts
Departed: 02-Oct-18 01:13 PM
Arrived: 02-Oct-18 02:01 PM
Distance/Time
Traveled:
285nm/0:48
Distance/Time
To Go:
Arrived

Flight Plot

Page will automatically refresh every two minutes.

Flight plan parsing failed; only flown route is shown


Map Options




Map Legend


Flown Route
Filed Route
Departure Airport
Arrival Airport
Navaid (VOR, NDB)
Fix

Horizontal Profiles

Position Reports

Time Latitude Longitude Heading Altitude Ground
Speed
02-Oct-18 12:53 33.433442 -111.994489 28 1124ft 0kts
02-Oct-18 12:54 33.433442 -111.994489 28 1124ft 0kts
02-Oct-18 12:55 33.433442 -111.994489 28 1124ft 0kts
02-Oct-18 12:56 33.433442 -111.994489 28 1124ft 0kts
02-Oct-18 12:57 33.433442 -111.994489 28 1124ft 0kts
02-Oct-18 12:58 33.433442 -111.994489 28 1124ft 0kts
02-Oct-18 12:59 33.433442 -111.994489 28 1124ft 0kts
02-Oct-18 13:00 33.433442 -111.994489 28 1124ft 0kts
02-Oct-18 13:01 33.433442 -111.994489 28 1124ft 0kts
02-Oct-18 13:02 33.433442 -111.994489 28 1124ft 0kts
02-Oct-18 13:03 33.433442 -111.994489 28 1124ft 0kts
02-Oct-18 13:04 33.433029 -111.994709 349 1123ft 2kts
02-Oct-18 13:05 33.432827 -111.994404 269 1124ft 0kts
02-Oct-18 13:06 33.432827 -111.994404 269 1124ft 0kts
02-Oct-18 13:07 33.432825 -111.994676 268 1123ft 5kts
02-Oct-18 13:08 33.432145 -111.997299 269 1125ft 15kts
02-Oct-18 13:09 33.432149 -111.999742 275 1130ft 0kts
02-Oct-18 13:10 33.432149 -112.003648 269 1127ft 17kts
02-Oct-18 13:11 33.432149 -112.009435 270 1133ft 19kts
02-Oct-18 13:12 33.432157 -112.016567 270 1122ft 22kts
02-Oct-18 13:13 33.432148 -112.024175 270 1117ft 22kts
02-Oct-18 13:14 33.432053 -112.026791 232 1116ft 4kts
02-Oct-18 13:15 33.431063 -112.010016 92 1130ft 153kts
02-Oct-18 13:16 33.432692 -111.952013 91 3355ft 188kts
02-Oct-18 13:17 33.437087 -111.879086 78 4891ft 261kts
02-Oct-18 13:18 33.470110 -111.794766 66 7735ft 293kts
02-Oct-18 13:19 33.507250 -111.705265 66 10716ft 311kts
02-Oct-18 13:20 33.546608 -111.610155 66 13603ft 327kts
02-Oct-18 13:21 33.587725 -111.510521 66 16446ft 343kts
02-Oct-18 13:22 33.630726 -111.406049 66 19065ft 358kts
02-Oct-18 13:23 33.675411 -111.297322 67 21439ft 372kts
02-Oct-18 13:24 33.718698 -111.182430 70 23616ft 384kts
02-Oct-18 13:25 33.761157 -111.063026 70 25601ft 396kts
02-Oct-18 13:26 33.804972 -110.939430 69 27424ft 408kts
02-Oct-18 13:27 33.849815 -110.812520 68 29044ft 421kts
02-Oct-18 13:28 33.897542 -110.676868 68 29884ft 453kts
02-Oct-18 13:29 33.946319 -110.537795 68 31863ft 450kts
02-Oct-18 13:30 33.994543 -110.399693 68 33704ft 447kts
02-Oct-18 13:31 34.042277 -110.262514 68 35332ft 443kts
02-Oct-18 13:32 34.089503 -110.126313 68 36748ft 441kts
02-Oct-18 13:33 34.129075 -110.011646 68 37236ft 456kts
02-Oct-18 13:34 34.187636 -109.841093 68 37224ft 482kts
02-Oct-18 13:35 34.238688 -109.691697 68 37221ft 481kts
02-Oct-18 13:36 34.289406 -109.542520 68 37224ft 482kts
02-Oct-18 13:37 34.331697 -109.417561 68 37219ft 482kts
02-Oct-18 13:38 34.381968 -109.268455 69 37192ft 481kts
02-Oct-18 13:39 34.427291 -109.117061 81 37200ft 477kts
02-Oct-18 13:40 34.447799 -108.959117 83 37183ft 472kts
02-Oct-18 13:41 34.470644 -108.775983 83 37212ft 473kts
02-Oct-18 13:42 34.486873 -108.644547 83 37228ft 473kts
02-Oct-18 13:43 34.506770 -108.487708 79 37232ft 463kts
02-Oct-18 13:44 34.532021 -108.340001 80 37261ft 455kts
02-Oct-18 13:45 34.557353 -108.191975 80 36794ft 454kts
02-Oct-18 13:46 34.575921 -108.082616 80 34373ft 469kts
02-Oct-18 13:47 34.602207 -107.926734 80 30863ft 476kts
02-Oct-18 13:48 34.633850 -107.777344 65 28440ft 441kts
02-Oct-18 13:49 34.690612 -107.646261 63 25068ft 433kts
02-Oct-18 13:50 34.744369 -107.522134 63 22672ft 407kts
02-Oct-18 13:51 34.795912 -107.402167 63 20412ft 396kts
02-Oct-18 13:52 34.846054 -107.284962 64 18147ft 387kts
02-Oct-18 13:53 34.891776 -107.176684 63 17395ft 344kts
02-Oct-18 13:54 34.936631 -107.076125 63 16436ft 349kts
02-Oct-18 13:55 34.981504 -106.975686 62 14779ft 325kts
02-Oct-18 13:56 35.021922 -106.885107 62 12644ft 291kts
02-Oct-18 13:57 35.059360 -106.801017 62 10770ft 265kts
02-Oct-18 13:58 35.093899 -106.724311 62 9210ft 241kts
02-Oct-18 13:59 35.123601 -106.658689 63 7976ft 204kts
02-Oct-18 14:00 35.114754 -106.603756 99 6861ft 183kts
02-Oct-18 14:01 35.090183 -106.566134 191 6466ft 155kts
02-Oct-18 14:02 35.054918 -106.591265 224 5740ft 150kts
02-Oct-18 14:03 35.030533 -106.620622 224 5316ft 40kts
02-Oct-18 14:04 35.030741 -106.622388 26 5318ft 7kts
02-Oct-18 14:05 35.033959 -106.618579 44 5317ft 18kts
02-Oct-18 14:06 35.036944 -106.614975 44 5321ft 12kts
02-Oct-18 14:07 35.041108 -106.613828 0 5319ft 14kts
02-Oct-18 14:08 35.043469 -106.613778 0 5320ft 7kts
02-Oct-18 14:09 35.046624 -106.614361 341 5323ft 7kts
02-Oct-18 14:10 35.046929 -106.614483 342 5323ft 0kts

Navigation Log

Ident Type
Flight plan parsing failed, navigation log unavailable